Time;durP1;ratioP1;P1;durP2;ratioP2;P2;SDS_P1;SDS_P2;PMS_P1;PMS_P2;Temp;Humidity;BMP_temperature;BMP_pressure;BME280_temperature;BME280_humidity;BME280_pressure;Samples;Min_cycle;Max_cycle;Signal;HPM_P1;HPM_P2
2023/05/25 00:00:09;;;;;;;16.47;9.60;;;11.80;1.00;;;;;;4968777;28;20226;-96
2023/05/25 00:02:38;;;;;;;16.57;8.97;;;11.90;99.90;;;;;;4973142;28;20228;-95
2023/05/25 00:05:06;;;;;;;19.03;9.17;;;12.00;99.90;;;;;;4971690;28;20203;-94
2023/05/25 00:07:33;;;;;;;18.50;9.57;;;12.10;99.90;;;;;;4966059;28;20203;-96
2023/05/25 00:10:00;;;;;;;17.77;9.73;;;12.20;99.90;;;;;;4972358;28;20201;-95
2023/05/25 00:12:27;;;;;;;18.87;10.00;;;12.20;99.90;;;;;;4969746;28;20266;-95
2023/05/25 00:14:54;;;;;;;17.77;9.00;;;12.30;99.90;;;;;;4972551;29;20224;-94
2023/05/25 00:17:22;;;;;;;18.67;10.07;;;12.30;99.90;;;;;;4973479;28;20219;-96
2023/05/25 00:19:51;;;;;;;19.00;8.83;;;12.20;97.70;;;;;;4973792;28;20212;-95
2023/05/25 00:22:19;;;;;;;18.83;9.37;;;12.10;99.90;;;;;;4965761;28;20236;-94
2023/05/25 00:24:46;;;;;;;20.13;9.00;;;12.00;99.90;;;;;;4970650;28;20199;-96
2023/05/25 00:27:13;;;;;;;18.40;8.90;;;11.80;99.90;;;;;;4995335;28;20233;-95
2023/05/25 00:29:40;;;;;;;18.97;9.30;;;11.80;99.90;;;;;;4986518;28;20192;-95
2023/05/25 00:32:07;;;;;;;17.33;8.43;;;11.70;1.00;;;;;;4976780;28;20215;-95
2023/05/25 00:34:35;;;;;;;19.30;8.77;;;11.70;1.00;;;;;;4976815;28;20202;-95
2023/05/25 00:37:03;;;;;;;15.00;8.60;;;11.70;1.00;;;;;;4979213;28;20197;-96
2023/05/25 00:39:30;;;;;;;17.83;8.87;;;11.80;1.00;;;;;;4996495;28;20205;-96
2023/05/25 00:41:58;;;;;;;16.77;8.40;;;11.90;1.00;;;;;;4982994;28;20229;-95
2023/05/25 00:44:25;;;;;;;17.37;8.77;;;12.00;1.00;;;;;;4969078;28;20287;-96
2023/05/25 00:46:52;;;;;;;18.50;9.27;;;12.10;1.00;;;;;;4969621;28;20228;-94
2023/05/25 00:49:21;;;;;;;15.47;8.77;;;12.10;99.90;;;;;;4964735;28;20279;-95
2023/05/25 00:51:51;;;;;;;15.57;8.37;;;12.00;99.90;;;;;;4965828;28;20279;-94
2023/05/25 00:54:20;;;;;;;16.40;7.87;;;12.00;99.90;;;;;;4950512;29;20231;-95
2023/05/25 00:56:51;;;;;;;20.60;9.80;;;11.90;99.90;;;;;;4969737;28;20227;-95
2023/05/25 00:59:26;;;;;;;15.47;8.77;;;11.90;99.90;;;;;;4971561;28;20267;-96
2023/05/25 01:01:54;;;;;;;18.70;9.40;;;11.80;1.00;;;;;;4970983;28;20187;-95
2023/05/25 01:04:22;;;;;;;16.87;8.97;;;11.80;99.90;;;;;;4962186;28;21014;-94
2023/05/25 01:06:51;;;;;;;14.93;8.40;;;11.70;1.00;;;;;;4967495;29;20231;-95
2023/05/25 01:09:20;;;;;;;17.00;8.63;;;11.70;1.00;;;;;;4972060;28;20223;-96
2023/05/25 01:11:51;;;;;;;17.20;9.17;;;11.70;1.00;;;;;;4979051;28;20221;-95
2023/05/25 01:14:21;;;;;;;21.17;9.23;;;11.70;1.00;;;;;;4978595;28;20234;-95
2023/05/25 01:16:48;;;;;;;16.13;8.73;;;11.60;1.00;;;;;;4977272;28;20206;-95
2023/05/25 01:19:15;;;;;;;17.60;9.20;;;11.60;1.00;;;;;;4973399;28;20227;-95
2023/05/25 01:21:50;;;;;;;13.93;8.57;;;11.60;1.00;;;;;;4975902;29;20231;-95
2023/05/25 01:24:22;;;;;;;17.50;8.80;;;11.50;1.00;;;;;;4958658;29;20206;-96
2023/05/25 01:26:56;;;;;;;21.40;9.23;;;11.50;1.00;;;;;;4960212;29;20189;-96
2023/05/25 01:29:26;;;;;;;18.23;8.60;;;11.60;1.00;;;;;;4977085;28;20206;-96
2023/05/25 01:37:23;;;;;;;18.87;9.60;;;11.60;1.00;;;;;;5035955;28;20220;-95
2023/05/25 01:39:50;;;;;;;15.57;8.90;;;11.70;1.00;;;;;;5031089;28;20205;-96
2023/05/25 01:42:17;;;;;;;18.40;9.00;;;11.80;1.00;;;;;;5198638;23;20242;-96
2023/05/25 01:44:44;;;;;;;20.57;9.30;;;11.90;1.00;;;;;;5391791;23;20241;-89
2023/05/25 01:47:22;;;;;;;17.53;9.17;;;12.00;1.00;;;;;;5139391;23;20253;-95
2023/05/25 01:50:02;;;;;;;15.80;9.73;;;12.00;1.00;;;;;;4997348;28;20207;-96
2023/05/25 01:52:36;;;;;;;25.07;9.90;;;12.10;1.00;;;;;;4997879;28;20214;-96
2023/05/25 01:55:08;;;;;;;18.63;9.23;;;12.10;1.00;;;;;;4998538;28;20229;-95
2023/05/25 01:57:37;;;;;;;15.97;9.10;;;12.20;1.00;;;;;;4994561;28;20218;-96
2023/05/25 02:00:06;;;;;;;15.80;9.40;;;12.20;1.00;;;;;;5085154;23;20210;-96
2023/05/25 02:02:34;;;;;;;18.90;9.63;;;12.30;1.00;;;;;;5017681;28;20172;-96
2023/05/25 02:05:01;;;;;;;18.07;9.40;;;12.40;99.90;;;;;;5158491;23;20195;-91
2023/05/25 02:07:28;;;;;;;16.30;9.20;;;12.40;99.90;;;;;;4979608;28;20171;-96
2023/05/25 02:09:56;;;;;;;17.30;9.20;;;12.40;99.90;;;;;;5154090;23;20225;-96
2023/05/25 02:12:23;;;;;;;18.50;10.10;;;12.40;99.90;;;;;;4997001;28;20192;-95
2023/05/25 02:14:50;;;;;;;18.00;9.13;;;12.40;99.90;;;;;;4998668;28;20217;-96
2023/05/25 02:17:18;;;;;;;16.23;9.20;;;12.40;99.90;;;;;;5595642;23;20248;-96
2023/05/25 02:19:47;;;;;;;21.87;9.20;;;12.40;99.90;;;;;;5057386;28;20706;-96
2023/05/25 02:22:15;;;;;;;15.77;9.13;;;12.40;99.90;;;;;;5055947;28;20205;-96
2023/05/25 02:24:42;;;;;;;14.80;9.13;;;12.30;99.90;;;;;;5055805;28;20182;-96
2023/05/25 02:29:46;;;;;;;14.57;8.77;;;12.10;99.90;;;;;;5226083;22;20238;-96
2023/05/25 02:32:13;;;;;;;17.23;8.90;;;12.00;99.90;;;;;;5058196;28;20215;-95
2023/05/25 02:34:40;;;;;;;13.73;8.57;;;11.90;1.00;;;;;;5060747;28;20204;-96
2023/05/25 02:37:06;;;;;;;14.33;8.83;;;11.80;1.00;;;;;;5053764;28;20235;-96
2023/05/25 02:39:36;;;;;;;16.90;9.13;;;11.70;1.00;;;;;;5060945;28;20195;-96
2023/05/25 02:42:03;;;;;;;14.00;9.13;;;11.70;1.00;;;;;;5074844;28;20223;-96
2023/05/25 02:44:31;;;;;;;15.73;9.10;;;11.60;1.00;;;;;;5057964;28;20223;-95
2023/05/25 02:46:59;;;;;;;16.23;9.47;;;11.70;1.00;;;;;;5050488;28;20264;-95
2023/05/25 02:49:26;;;;;;;14.10;9.07;;;11.70;1.00;;;;;;5057389;28;20199;-95
2023/05/25 02:51:53;;;;;;;17.53;9.23;;;11.80;1.00;;;;;;5075387;28;20193;-95
2023/05/25 02:54:20;;;;;;;15.17;9.30;;;11.90;1.00;;;;;;5057351;28;20247;-96
2023/05/25 02:56:47;;;;;;;13.77;8.80;;;12.00;1.00;;;;;;5053859;28;20199;-95
2023/05/25 02:59:14;;;;;;;19.63;9.23;;;12.20;1.00;;;;;;5055927;28;20220;-95
2023/05/25 03:01:41;;;;;;;15.07;9.53;;;12.20;1.00;;;;;;5053595;28;20209;-96
2023/05/25 03:04:09;;;;;;;16.33;9.43;;;12.40;1.00;;;;;;5055807;28;20215;-95
2023/05/25 03:06:36;;;;;;;15.27;9.37;;;12.50;1.00;;;;;;5071199;28;20236;-95
2023/05/25 03:09:05;;;;;;;17.93;10.10;;;12.60;1.00;;;;;;5051822;28;20233;-95
2023/05/25 03:11:32;;;;;;;13.13;8.70;;;12.60;99.90;;;;;;5070361;28;20204;-94
2023/05/25 03:13:59;;;;;;;12.23;8.60;;;12.80;99.90;;;;;;5059994;28;20202;-96
2023/05/25 03:16:26;;;;;;;15.13;8.97;;;12.90;99.90;;;;;;5068734;28;20194;-96
2023/05/25 03:18:53;;;;;;;14.30;8.73;;;12.90;99.90;;;;;;5079073;28;20174;-95
2023/05/25 03:21:22;;;;;;;13.13;8.43;;;13.00;99.90;;;;;;5077829;28;20225;-95
2023/05/25 03:23:49;;;;;;;11.10;8.23;;;13.10;99.90;;;;;;5059939;28;20206;-96
2023/05/25 03:26:16;;;;;;;18.37;9.17;;;13.20;13.10;;;;;;5058374;28;20198;-96
2023/05/25 03:28:43;;;;;;;12.17;8.77;;;13.20;1.00;;;;;;5058328;28;20215;-96
2023/05/25 03:31:11;;;;;;;17.07;9.17;;;13.30;1.00;;;;;;5056727;28;20225;-96
2023/05/25 03:33:38;;;;;;;14.60;9.20;;;13.30;1.00;;;;;;5056142;28;20232;-95
2023/05/25 03:36:07;;;;;;;14.83;8.83;;;13.40;1.00;;;;;;5057196;28;20194;-96
2023/05/25 03:38:36;;;;;;;14.13;9.30;;;13.50;1.00;;;;;;5059070;28;20222;-96
2023/05/25 03:41:03;;;;;;;15.70;8.90;;;13.60;1.00;;;;;;5058945;28;20243;-96
2023/05/25 03:43:30;;;;;;;11.37;8.10;;;13.70;1.00;;;;;;5069908;28;20187;-96
2023/05/25 03:45:57;;;;;;;15.37;8.90;;;13.80;1.00;;;;;;5366582;23;20219;-95
2023/05/25 03:48:24;;;;;;;14.43;8.47;;;13.90;1.00;;;;;;5060257;28;20221;-96
2023/05/25 04:26:59;;;;;;;10.48;6.55;;;16.70;1.00;;;;;;5037199;28;20218;-96
2023/05/25 04:29:26;;;;;;;11.25;6.60;;;16.90;1.00;;;;;;5094312;23;20240;-96
2023/05/25 04:31:53;;;;;;;8.73;6.43;;;17.20;99.90;;;;;;5075270;28;20185;-96
2023/05/25 04:34:20;;;;;;;15.27;6.32;;;17.40;99.90;;;;;;5652387;22;20296;-96
2023/05/25 04:36:47;;;;;;;9.90;6.60;;;17.50;1.00;;;;;;5059292;28;20241;-96
2023/05/25 05:02:34;;;;;;;11.45;7.05;;;16.30;1.00;;;;;;5764806;23;20584;-96
2023/05/25 05:05:01;;;;;;;11.38;7.05;;;16.30;1.00;;;;;;5055183;28;20287;-96
2023/05/25 05:07:28;;;;;;;11.27;7.85;;;16.20;1.00;;;;;;5051290;28;20196;-95
2023/05/25 05:09:55;;;;;;;16.58;10.25;;;16.10;1.00;;;;;;5072589;28;20196;-96
2023/05/25 05:12:22;;;;;;;38.17;20.27;;;16.20;1.00;;;;;;5068699;28;20220;-96
2023/05/25 05:17:26;;;;;;;69.60;31.70;;;16.20;1.00;;;;;;5811910;22;20226;-95
2023/05/25 05:19:55;;;;;;;63.05;26.80;;;16.30;1.00;;;;;;5604331;22;20225;-95
2023/05/25 05:22:21;;;;;;;61.72;28.02;;;16.40;1.00;;;;;;5015336;28;20296;-94
2023/05/25 05:24:48;;;;;;;122.18;48.35;;;16.40;1.00;;;;;;5015737;28;20206;-93
2023/05/25 05:27:16;;;;;;;199.65;71.82;;;16.50;1.00;;;;;;5015287;28;20575;-93
2023/05/25 05:29:43;;;;;;;306.67;114.40;;;16.60;1.00;;;;;;5014340;28;20206;-94
2023/05/25 05:32:09;;;;;;;186.40;70.93;;;16.70;1.00;;;;;;5015909;28;20197;-95
2023/05/25 05:34:37;;;;;;;150.00;56.05;;;16.80;1.00;;;;;;5018723;28;20265;-95
2023/05/25 05:37:05;;;;;;;91.68;36.78;;;16.80;99.90;;;;;;5017861;28;20202;-95
2023/05/25 05:39:32;;;;;;;85.82;32.00;;;16.90;99.90;;;;;;5015615;28;20300;-96
2023/05/25 05:41:59;;;;;;;87.95;36.45;;;17.00;99.90;;;;;;5016385;28;20220;-95
2023/05/25 05:44:25;;;;;;;120.43;43.83;;;17.20;99.90;;;;;;5015770;28;20285;-95
2023/05/25 05:46:58;;;;;;;100.70;39.00;;;17.30;34.60;;;;;;5005991;28;20199;-96
2023/05/25 05:49:25;;;;;;;87.65;36.15;;;17.50;1.00;;;;;;4997890;28;20238;-95
2023/05/25 05:51:52;;;;;;;122.57;43.88;;;17.60;1.00;;;;;;5000812;28;20193;-95
2023/05/25 05:54:20;;;;;;;138.00;46.35;;;17.70;1.00;;;;;;5015752;28;20210;-96
2023/05/25 05:56:47;;;;;;;116.05;41.90;;;17.90;1.00;;;;;;5014466;28;20222;-95
2023/05/25 05:59:14;;;;;;;82.05;33.70;;;18.00;1.00;;;;;;5015539;28;20202;-96
2023/05/25 06:01:41;;;;;;;65.93;29.15;;;18.10;1.00;;;;;;5016291;28;20228;-95
2023/05/25 06:04:09;;;;;;;45.47;22.55;;;18.20;99.90;;;;;;5017568;28;20201;-96
2023/05/25 06:06:36;;;;;;;58.42;25.80;;;18.40;99.90;;;;;;5003004;28;20227;-96
2023/05/25 06:09:05;;;;;;;68.05;30.63;;;18.40;99.90;;;;;;5002950;28;20193;-94
2023/05/25 06:11:34;;;;;;;60.60;28.20;;;18.50;99.90;;;;;;5013522;28;20687;-95
2023/05/25 06:14:01;;;;;;;92.20;36.47;;;18.30;99.90;;;;;;5023841;28;20202;-96
2023/05/25 06:16:28;;;;;;;57.33;24.70;;;18.20;45.30;;;;;;5021809;28;20190;-95
2023/05/25 06:18:55;;;;;;;42.53;17.00;;;18.10;99.90;;;;;;5019406;28;20240;-96
2023/05/25 06:21:22;;;;;;;16.77;7.40;;;18.00;99.90;;;;;;5027127;28;20285;-96
2023/05/25 06:23:49;;;;;;;30.60;16.17;;;18.00;99.90;;;;;;5031022;28;20213;-94
2023/05/25 06:26:16;;;;;;;39.67;20.42;;;18.00;99.90;;;;;;5032535;28;20259;-96
2023/05/25 06:28:46;;;;;;;48.28;24.65;;;18.10;99.90;;;;;;5031904;28;20206;-95
2023/05/25 06:31:13;;;;;;;21.77;10.43;;;18.20;99.90;;;;;;5032584;28;20221;-95
2023/05/25 06:33:40;;;;;;;9.35;5.85;;;18.40;38.30;;;;;;5032071;28;20296;-95
2023/05/25 06:36:08;;;;;;;9.35;6.07;;;18.40;1.00;;;;;;5031274;28;20224;-96
2023/05/25 06:38:35;;;;;;;11.30;5.32;;;18.20;1.00;;;;;;5027051;28;20230;-96
2023/05/25 06:41:04;;;;;;;19.70;9.18;;;18.00;1.00;;;;;;5031386;28;20211;-96
2023/05/25 06:43:31;;;;;;;16.10;8.07;;;17.80;97.30;;;;;;5034517;28;20215;-96
2023/05/25 06:46:00;;;;;;;9.13;5.25;;;17.70;99.90;;;;;;5035416;28;20196;-96
2023/05/25 06:48:26;;;;;;;12.50;5.78;;;17.70;99.90;;;;;;5034160;28;20236;-95
2023/05/25 06:50:53;;;;;;;15.10;5.22;;;17.60;99.90;;;;;;5036597;28;20243;-96
2023/05/25 06:53:20;;;;;;;8.70;5.07;;;17.60;99.90;;;;;;5152843;23;20297;-96
2023/05/25 06:58:26;;;;;;;10.95;5.07;;;17.60;99.90;;;;;;5110467;23;20213;-95
2023/05/25 07:00:53;;;;;;;12.30;5.80;;;17.70;99.90;;;;;;5067654;23;20232;-94
2023/05/25 07:03:21;;;;;;;8.85;4.70;;;17.80;99.90;;;;;;5026900;28;20278;-96
2023/05/25 07:05:48;;;;;;;9.02;5.28;;;18.10;99.90;;;;;;5032777;28;20206;-94
2023/05/25 07:08:15;;;;;;;12.07;5.03;;;18.30;99.90;;;;;;5035223;28;20225;-96
2023/05/25 07:10:42;;;;;;;9.48;4.68;;;18.50;1.00;;;;;;5035658;28;20198;-96
2023/05/25 07:13:10;;;;;;;10.77;5.80;;;18.70;1.00;;;;;;5026348;28;20202;-95
2023/05/25 07:15:36;;;;;;;8.25;5.47;;;19.00;1.00;;;;;;5028436;28;20198;-94
2023/05/25 07:18:04;;;;;;;25.50;12.65;;;19.40;1.00;;;;;;5015632;28;20194;-95
2023/05/25 07:20:32;;;;;;;8.88;4.78;;;19.80;1.00;;;;;;5032379;28;20292;-96
2023/05/25 07:22:59;;;;;;;11.02;6.80;;;20.10;1.00;;;;;;5031403;28;20245;-95
2023/05/25 07:25:27;;;;;;;32.72;17.73;;;20.30;1.00;;;;;;5025921;28;20182;-95
2023/05/25 07:27:54;;;;;;;9.70;5.22;;;20.50;1.00;;;;;;5030830;28;20191;-96
2023/05/25 07:30:21;;;;;;;27.75;17.08;;;20.60;1.00;;;;;;5012054;28;20195;-96
2023/05/25 07:32:48;;;;;;;13.07;7.90;;;20.80;1.00;;;;;;5030155;28;20258;-95
2023/05/25 07:35:15;;;;;;;7.03;3.80;;;20.90;1.00;;;;;;5035131;28;20205;-96
2023/05/25 07:37:44;;;;;;;5.25;3.40;;;21.00;99.90;;;;;;5036279;28;20182;-95
2023/05/25 07:40:11;;;;;;;9.48;5.53;;;21.00;99.90;;;;;;5033628;28;20198;-95
2023/05/25 07:42:39;;;;;;;9.80;4.00;;;21.10;99.90;;;;;;5019981;28;20294;-96
2023/05/25 07:45:07;;;;;;;11.30;5.82;;;21.20;99.90;;;;;;5030764;28;20248;-96
2023/05/25 07:47:34;;;;;;;6.10;3.67;;;21.40;99.90;;;;;;5034107;28;20257;-96
2023/05/25 07:50:01;;;;;;;10.30;3.75;;;21.60;99.90;;;;;;5023749;28;20203;-96
2023/05/25 07:52:28;;;;;;;5.90;3.10;;;21.50;99.90;;;;;;5023676;28;20222;-93
2023/05/25 07:54:56;;;;;;;8.70;2.90;;;21.40;99.90;;;;;;5030427;28;20198;-94
2023/05/25 07:57:24;;;;;;;5.82;2.90;;;21.40;99.90;;;;;;5035463;28;20198;-94
2023/05/25 07:59:51;;;;;;;8.32;2.97;;;21.40;99.90;;;;;;5036799;28;20229;-96
2023/05/25 08:02:18;;;;;;;7.32;3.00;;;21.30;99.90;;;;;;5034127;28;20277;-96
2023/05/25 08:04:45;;;;;;;5.85;2.97;;;21.10;99.90;;;;;;5036269;28;20289;-96
2023/05/25 08:07:12;;;;;;;9.48;4.07;;;21.00;99.90;;;;;;5036106;28;20216;-95
2023/05/25 08:09:39;;;;;;;6.90;3.50;;;20.80;99.90;;;;;;5032021;28;20221;-95
2023/05/25 08:12:07;;;;;;;6.40;2.97;;;20.60;99.90;;;;;;5037186;28;20194;-95
2023/05/25 08:14:34;;;;;;;14.85;6.68;;;20.40;99.90;;;;;;5028368;28;20266;-94
2023/05/25 08:17:01;;;;;;;8.55;2.90;;;20.20;99.90;;;;;;5023896;28;20205;-94
2023/05/25 08:19:29;;;;;;;7.47;2.97;;;20.00;99.90;;;;;;5023628;28;20226;-93
2023/05/25 08:21:56;;;;;;;9.55;3.22;;;19.80;99.90;;;;;;5019641;28;20207;-94
2023/05/25 08:24:23;;;;;;;7.45;2.97;;;19.60;99.90;;;;;;5022210;28;20205;-94
2023/05/25 08:26:50;;;;;;;6.20;3.50;;;19.40;99.90;;;;;;5020455;28;20194;-94
2023/05/25 08:29:18;;;;;;;9.88;3.40;;;19.30;99.90;;;;;;5020005;28;20209;-92
2023/05/25 08:31:48;;;;;;;11.98;3.53;;;19.20;99.90;;;;;;5012914;28;20198;-94
2023/05/25 08:34:15;;;;;;;5.85;3.70;;;19.10;99.90;;;;;;5000994;28;20229;-92
2023/05/25 08:36:43;;;;;;;9.02;3.92;;;19.10;99.90;;;;;;5016314;28;20194;-93
2023/05/25 08:39:10;;;;;;;11.05;3.35;;;19.00;99.90;;;;;;4998913;28;20281;-94
2023/05/25 08:41:41;;;;;;;7.50;2.80;;;19.00;99.90;;;;;;4999100;28;20218;-94
2023/05/25 08:44:08;;;;;;;6.05;2.47;;;19.00;99.90;;;;;;4999011;28;20199;-94
2023/05/25 08:46:36;;;;;;;7.40;2.80;;;19.00;99.90;;;;;;4998127;28;20213;-94
2023/05/25 08:49:08;;;;;;;3.75;2.33;;;19.00;99.90;;;;;;5001970;28;20207;-95
2023/05/25 08:51:37;;;;;;;7.18;2.65;;;19.00;99.90;;;;;;5018215;28;20186;-94
2023/05/25 08:54:08;;;;;;;5.65;2.45;;;19.10;99.90;;;;;;4999311;28;20207;-93
2023/05/25 08:56:41;;;;;;;7.90;2.42;;;19.20;99.90;;;;;;5019043;28;20201;-93
2023/05/25 08:59:13;;;;;;;5.90;2.55;;;19.30;99.90;;;;;;5017037;28;20199;-91
2023/05/25 09:01:45;;;;;;;6.72;2.45;;;19.40;99.90;;;;;;5013975;28;20213;-92
2023/05/25 09:04:13;;;;;;;5.70;2.75;;;19.40;99.90;;;;;;4996827;28;20187;-92
2023/05/25 09:06:40;;;;;;;5.72;2.58;;;19.50;99.90;;;;;;4998197;28;20242;-93
2023/05/25 09:09:08;;;;;;;5.20;2.88;;;19.50;99.90;;;;;;5016043;28;20208;-94
2023/05/25 09:11:35;;;;;;;6.15;2.33;;;19.70;99.90;;;;;;5015987;28;20197;-94
2023/05/25 09:14:03;;;;;;;6.30;2.80;;;19.90;99.90;;;;;;5017123;28;20201;-93
2023/05/25 09:16:32;;;;;;;5.00;2.55;;;20.00;99.90;;;;;;5031220;28;20266;-95
2023/05/25 09:19:00;;;;;;;5.95;2.83;;;19.80;99.90;;;;;;5022381;28;20199;-96
2023/05/25 09:21:27;;;;;;;4.97;2.72;;;20.00;99.90;;;;;;5016695;28;20209;-92
2023/05/25 09:23:53;;;;;;;5.32;2.63;;;20.20;99.90;;;;;;5017475;28;20218;-93
2023/05/25 09:26:21;;;;;;;6.32;2.78;;;20.40;99.90;;;;;;5000719;28;20584;-94
2023/05/25 09:28:48;;;;;;;6.35;2.83;;;20.50;99.90;;;;;;5005883;28;20202;-95
2023/05/25 09:31:15;;;;;;;5.70;2.80;;;20.60;99.90;;;;;;5015267;28;20206;-92
2023/05/25 09:33:42;;;;;;;9.02;3.05;;;20.90;99.90;;;;;;5014699;28;20198;-92
2023/05/25 09:36:13;;;;;;;4.78;2.83;;;21.20;99.90;;;;;;4995709;28;20203;-93
2023/05/25 09:38:41;;;;;;;5.78;2.80;;;21.10;99.90;;;;;;5013556;28;20285;-94
2023/05/25 09:41:07;;;;;;;6.53;3.20;;;21.10;99.90;;;;;;5009753;28;20262;-93
2023/05/25 09:43:35;;;;;;;7.60;2.85;;;21.20;99.90;;;;;;5004451;28;20218;-93
2023/05/25 09:46:02;;;;;;;6.32;2.78;;;21.20;99.90;;;;;;5014492;28;20202;-95
2023/05/25 09:48:29;;;;;;;6.90;2.83;;;21.10;99.90;;;;;;4996782;28;20195;-92
2023/05/25 09:50:56;;;;;;;5.32;2.60;;;20.80;99.90;;;;;;5015711;28;20248;-93
2023/05/25 09:53:26;;;;;;;5.68;2.85;;;20.60;99.90;;;;;;5003361;28;20199;-94
2023/05/25 09:55:52;;;;;;;3.47;2.45;;;20.50;99.90;;;;;;5006816;28;20206;-93
2023/05/25 09:58:19;;;;;;;4.53;2.50;;;20.60;99.90;;;;;;5015161;28;20204;-94
2023/05/25 10:00:46;;;;;;;4.18;2.40;;;20.80;99.90;;;;;;5014127;28;20230;-94
2023/05/25 10:03:13;;;;;;;3.67;2.40;;;20.90;99.90;;;;;;5014675;28;20210;-93
2023/05/25 10:05:40;;;;;;;6.78;2.90;;;21.10;99.90;;;;;;5015461;28;20232;-94
2023/05/25 10:08:10;;;;;;;7.05;2.90;;;21.20;99.90;;;;;;5018294;28;20582;-93
2023/05/25 10:10:39;;;;;;;6.85;2.58;;;21.10;99.90;;;;;;5009419;28;20202;-94
2023/05/25 10:13:08;;;;;;;4.28;2.53;;;20.90;99.90;;;;;;4997557;28;20650;-95
2023/05/25 10:15:37;;;;;;;4.70;2.42;;;20.90;99.90;;;;;;4998639;28;20206;-93
2023/05/25 10:18:06;;;;;;;5.10;2.40;;;20.90;99.90;;;;;;5003369;28;20561;-93
2023/05/25 10:20:33;;;;;;;6.10;2.92;;;20.90;99.90;;;;;;5014449;28;20208;-94
2023/05/25 10:23:04;;;;;;;5.50;2.53;;;21.00;99.90;;;;;;5014679;28;20218;-93
2023/05/25 10:25:37;;;;;;;4.05;2.45;;;21.30;99.90;;;;;;5014735;28;20194;-93
2023/05/25 10:28:12;;;;;;;6.43;2.50;;;21.50;99.90;;;;;;5014714;28;20202;-92
2023/05/25 10:30:39;;;;;;;5.38;2.63;;;21.60;99.90;;;;;;5012256;28;20190;-93
2023/05/25 10:33:06;;;;;;;6.80;2.40;;;21.40;99.90;;;;;;5013696;28;20193;-94
2023/05/25 10:35:34;;;;;;;6.55;2.40;;;21.50;99.90;;;;;;5017774;28;20201;-92
2023/05/25 10:38:04;;;;;;;7.30;2.63;;;21.70;99.90;;;;;;5011889;28;20190;-93
2023/05/25 10:40:31;;;;;;;5.70;2.05;;;21.70;99.90;;;;;;5014885;28;20202;-93
2023/05/25 10:42:58;;;;;;;4.38;2.20;;;21.90;99.90;;;;;;5013482;28;20214;-93
2023/05/25 10:45:27;;;;;;;5.35;2.67;;;22.00;99.90;;;;;;5014282;28;20575;-92
2023/05/25 10:47:54;;;;;;;4.90;2.20;;;22.00;99.90;;;;;;4994981;28;20203;-93
2023/05/25 10:50:23;;;;;;;4.55;2.30;;;21.80;99.90;;;;;;5010503;28;20206;-93
2023/05/25 10:53:00;;;;;;;8.82;2.35;;;21.50;99.90;;;;;;5003258;28;20242;-93
2023/05/25 10:55:30;;;;;;;5.88;2.17;;;21.40;99.90;;;;;;5001005;28;20198;-93
2023/05/25 10:58:11;;;;;;;3.60;2.08;;;21.30;99.90;;;;;;4998618;28;20223;-92
2023/05/25 11:00:40;;;;;;;5.30;2.00;;;21.30;99.90;;;;;;5013707;28;20218;-92
2023/05/25 11:03:07;;;;;;;4.47;2.00;;;21.30;99.90;;;;;;5014134;28;20218;-93
2023/05/25 11:05:38;;;;;;;5.05;2.00;;;21.30;99.90;;;;;;5014047;28;20199;-92
2023/05/25 11:08:07;;;;;;;6.50;2.30;;;21.30;99.90;;;;;;5009049;28;20564;-93
2023/05/25 11:10:53;;;;;;;4.85;2.28;;;21.40;99.90;;;;;;4994340;28;20207;-92
2023/05/25 11:13:32;;;;;;;4.10;2.10;;;21.50;99.90;;;;;;5003546;28;20214;-92
2023/05/25 11:16:17;;;;;;;5.35;2.28;;;21.60;99.90;;;;;;5003191;28;20205;-92
2023/05/25 11:18:45;;;;;;;7.28;2.35;;;21.60;99.90;;;;;;5018220;28;20625;-93
2023/05/25 11:21:22;;;;;;;4.45;2.13;;;21.70;99.90;;;;;;5017945;28;20190;-92
2023/05/25 11:23:56;;;;;;;5.05;2.50;;;21.60;99.90;;;;;;5017493;28;20205;-92
2023/05/25 11:26:26;;;;;;;5.63;2.38;;;21.60;99.90;;;;;;5017282;28;20733;-91
2023/05/25 11:28:53;;;;;;;4.68;2.30;;;21.70;99.90;;;;;;5017439;28;20720;-92
2023/05/25 11:31:28;;;;;;;4.72;2.22;;;21.60;99.90;;;;;;5010120;28;20195;-92
2023/05/25 11:33:57;;;;;;;7.78;3.97;;;21.60;99.90;;;;;;4998031;28;20538;-92
2023/05/25 11:36:24;;;;;;;3.72;2.35;;;21.50;99.90;;;;;;4998101;28;20199;-91
2023/05/25 11:38:53;;;;;;;3.17;2.30;;;21.60;99.90;;;;;;4998368;28;20190;-92
2023/05/25 11:41:20;;;;;;;5.05;2.30;;;21.90;99.90;;;;;;4998076;28;20645;-92
2023/05/25 11:43:48;;;;;;;4.55;2.33;;;22.00;99.90;;;;;;5008006;28;20300;-93
2023/05/25 11:46:17;;;;;;;6.13;2.95;;;22.00;99.90;;;;;;5017248;28;20670;-92
2023/05/25 11:48:50;;;;;;;3.60;2.10;;;22.10;99.90;;;;;;5017272;28;20205;-94
2023/05/25 11:51:18;;;;;;;4.90;2.58;;;22.00;99.90;;;;;;5017290;28;20200;-92
2023/05/25 11:53:45;;;;;;;6.10;2.30;;;21.90;99.90;;;;;;5017044;28;20198;-93
2023/05/25 11:56:13;;;;;;;5.05;2.65;;;21.80;99.90;;;;;;5017143;28;20202;-91
2023/05/25 11:58:40;;;;;;;6.10;2.70;;;21.90;99.90;;;;;;5016991;28;20198;-93
2023/05/25 12:01:15;;;;;;;4.53;2.63;;;22.00;99.90;;;;;;5017094;28;20222;-93
2023/05/25 12:03:42;;;;;;;4.63;2.67;;;22.00;99.90;;;;;;5019161;28;20221;-93
2023/05/25 12:06:24;;;;;;;6.38;2.60;;;22.00;99.90;;;;;;5018516;28;20209;-95
2023/05/25 12:08:50;;;;;;;4.72;2.53;;;21.90;99.90;;;;;;5017113;28;20317;-94
2023/05/25 12:11:17;;;;;;;5.32;2.75;;;21.80;99.90;;;;;;5016605;28;20198;-93
2023/05/25 12:13:44;;;;;;;5.55;2.45;;;21.80;99.90;;;;;;5013021;28;20198;-93
2023/05/25 12:16:11;;;;;;;4.80;2.40;;;21.90;99.90;;;;;;5016944;28;20281;-93
2023/05/25 12:18:38;;;;;;;4.75;2.30;;;22.00;99.90;;;;;;5017460;28;20194;-94
2023/05/25 12:21:07;;;;;;;6.10;2.63;;;21.90;99.90;;;;;;5000350;28;20191;-94
2023/05/25 12:23:35;;;;;;;6.82;2.92;;;21.80;99.90;;;;;;5010125;28;20691;-94
2023/05/25 12:26:08;;;;;;;5.38;2.80;;;21.80;99.90;;;;;;5016368;28;20229;-92
2023/05/25 12:28:35;;;;;;;5.55;2.83;;;21.90;99.90;;;;;;5016890;28;20194;-93
2023/05/25 12:31:21;;;;;;;5.57;2.30;;;22.00;99.90;;;;;;5016630;28;20209;-92
2023/05/25 12:34:02;;;;;;;4.97;2.13;;;22.10;99.90;;;;;;5016492;28;20194;-93
2023/05/25 12:36:43;;;;;;;12.20;2.50;;;22.10;99.90;;;;;;5016690;28;20182;-93
2023/05/25 12:39:13;;;;;;;7.85;2.20;;;22.10;99.90;;;;;;4996551;28;20203;-91
2023/05/25 12:41:47;;;;;;;6.50;2.33;;;22.20;99.90;;;;;;5013974;28;20202;-92
2023/05/25 12:44:25;;;;;;;4.35;2.30;;;22.20;99.90;;;;;;5016058;28;20706;-93
2023/05/25 12:46:53;;;;;;;3.65;2.00;;;22.30;99.90;;;;;;5015825;28;20195;-93
2023/05/25 12:49:31;;;;;;;5.70;2.28;;;22.30;99.90;;;;;;5016101;28;20201;-92
2023/05/25 12:51:59;;;;;;;4.80;2.35;;;22.20;99.90;;;;;;5015842;28;20664;-93
2023/05/25 12:54:44;;;;;;;4.65;1.95;;;22.10;99.90;;;;;;5016289;28;20204;-92
2023/05/25 12:57:12;;;;;;;6.40;2.80;;;22.10;99.90;;;;;;4996792;28;20195;-93
2023/05/25 12:59:40;;;;;;;4.35;2.90;;;22.30;99.90;;;;;;4996159;28;20562;-93
2023/05/25 13:02:08;;;;;;;6.82;2.55;;;22.50;99.90;;;;;;5009312;28;20305;-94
2023/05/25 13:04:36;;;;;;;5.10;2.40;;;22.60;99.90;;;;;;5011500;28;20210;-93
2023/05/25 13:07:03;;;;;;;5.53;2.67;;;22.80;99.90;;;;;;5011527;28;20642;-94
2023/05/25 13:09:31;;;;;;;5.25;2.38;;;22.80;99.90;;;;;;5012111;28;20220;-93
2023/05/25 13:12:00;;;;;;;4.70;2.47;;;22.90;99.90;;;;;;4996002;28;20732;-92
2023/05/25 13:14:29;;;;;;;6.50;2.65;;;23.20;99.90;;;;;;5011684;28;20195;-93
2023/05/25 13:16:56;;;;;;;5.63;2.78;;;23.40;99.90;;;;;;5015646;28;20198;-92
2023/05/25 13:19:24;;;;;;;8.52;2.42;;;23.60;99.90;;;;;;5009140;28;20307;-93
2023/05/25 13:21:51;;;;;;;4.25;2.72;;;23.80;99.90;;;;;;4990377;28;20199;-91
2023/05/25 13:24:19;;;;;;;5.55;2.63;;;24.10;99.90;;;;;;5015225;28;20225;-94
2023/05/25 13:26:46;;;;;;;5.22;2.50;;;24.20;99.90;;;;;;5015248;28;20210;-92
2023/05/25 13:29:14;;;;;;;5.53;2.55;;;24.10;99.90;;;;;;5001329;28;20694;-93
2023/05/25 13:31:42;;;;;;;5.95;2.72;;;24.00;99.90;;;;;;4996183;28;20199;-93
2023/05/25 13:34:08;;;;;;;3.58;2.50;;;24.10;99.90;;;;;;5001878;28;20206;-94
2023/05/25 13:36:35;;;;;;;7.32;2.65;;;24.00;99.30;;;;;;5015394;28;20198;-93
2023/05/25 13:39:04;;;;;;;4.95;2.58;;;24.00;99.00;;;;;;5015566;28;20197;-93
2023/05/25 13:41:30;;;;;;;4.65;2.80;;;23.90;97.50;;;;;;5016155;28;20198;-93
2023/05/25 13:43:57;;;;;;;7.03;3.13;;;23.90;97.50;;;;;;5015333;28;20210;-94
2023/05/25 13:46:25;;;;;;;5.45;2.72;;;23.90;95.60;;;;;;5014981;28;20197;-92
2023/05/25 13:48:52;;;;;;;5.68;2.67;;;23.90;95.00;;;;;;5015049;28;20233;-92
2023/05/25 13:51:19;;;;;;;6.63;3.10;;;23.70;94.40;;;;;;5015102;28;20212;-92
2023/05/25 13:53:47;;;;;;;6.22;3.13;;;23.40;95.10;;;;;;5015003;28;20206;-92
2023/05/25 13:56:14;;;;;;;8.20;3.33;;;23.30;94.90;;;;;;5014803;28;20210;-92
2023/05/25 13:58:41;;;;;;;4.28;2.88;;;23.30;95.50;;;;;;5014788;28;20202;-93
2023/05/25 14:01:08;;;;;;;6.93;3.17;;;23.20;96.80;;;;;;5014438;28;20627;-91